Calmar/Wizard Lake Airport

SPECI CYEG TAF CYEG
-13 °C
°C
-
°C
22m
Alter
02:00:58
LT
01:00
UTC
0 ft

1.000

2.000

3.000

4.000

5.000

FEW 1.500
OVC 3.000
VFR
<?= Yii::t('app', 'Wind direction') ?> <?= Yii::t('app', 'of'); ?>
360°
08:24
Sonne auf
66%
Luftfeuchtigkeit
Windscherung
Geschlossen/Schnee
RWY-Sichtweite
RWY Zustand
Vert. Sichtweite
Min. Sichtbarkeit
CAVOK
Trend
Korrektur
Besonderer Bericht
30,23 inHg
QNH
SPECI CYEG 280039Z 36009KT 20SM FEW015 OVC030 M13/M18 A3023 RMK SC1SC8 SC TR SLP285
Himmel bedeckt
9 kt
9 kt
18:00
MVFR
12 kt
19:00
MVFR
12 kt
20:00
MVFR
10 kt
21:00
MVFR
10 kt
22:00
MVFR
10 kt
23:00
MVFR
10 kt
00:00
VFR
10 kt
20 mi
Sichtweite
3.000 ft
Wolkendecke
9 kt
Wind
metar-taf.com/CWL3

Metar-Taf.com

Visueller Decoder

Wir und Dritte verfolgen dein Internetverhalten auf unserer Website mit Cookies. Wenn du fortfährst, gehen wir davon aus, dass du mit unserer Cookie-Richtlinie einverstanden bist.